首页
METAR-TAF:

METAR-TAF

机场 :

Air Force Base Waterkloof

Waterkloof, 南非共和國

纬度: 25-50S, 经度: 028-13E, 海拔: 1498米

当前天气观测

该预报发布于52分钟前的01:00 UTC
风速2节,风向
温度 4°C
湿度 75%
气压 1030 hPa

METAR: FAWK 130100Z AUTO 17002KT //// // ////// 04/M00 Q1030

时间: 03:52 (01:52 UTC)

预报

该预报发布于16小时和52分钟前的09:00 UTC
预报有效从12日的 10点(UTC)到 12日的 18点(UTC)
风速8节,风向西转西北
能见度10公里或以上
1500米以下无云,无积雨云

TAF: FAWK 120900Z 1210/1218 30008KT CAVOK TX18/1212Z TN10/1218Z

超过4000个机场的气象观测和天气预报(METAR&TAF报告)。

可查询的气象台以黄色和红色小点在地图上表示。

将鼠标移到小点上方,可查看气象台名称。

然后点击查看天气观测和预报。

如需切换地图:点击带黑十字的绿色按钮放大地图;点击带横线的绿色按钮缩小地图;或者点击绿色箭头查看邻近地区的地图。


METAR-TAF: